sensor_id;sensor_type;location;lat;lon;timestamp;temperature;humidity
29551;DHT22;16488;52.396;10.696;2023-12-20T00:01:50;7.20;99.90
29551;DHT22;16488;52.396;10.696;2023-12-20T00:04:16;7.30;99.90
29551;DHT22;16488;52.396;10.696;2023-12-20T00:06:41;7.20;99.90
29551;DHT22;16488;52.396;10.696;2023-12-20T00:09:07;7.20;99.90
29551;DHT22;16488;52.396;10.696;2023-12-20T00:11:33;7.20;99.90
29551;DHT22;16488;52.396;10.696;2023-12-20T00:13:58;7.20;99.90
29551;DHT22;16488;52.396;10.696;2023-12-20T00:16:24;6.90;99.90
29551;DHT22;16488;52.396;10.696;2023-12-20T00:18:49;6.80;99.90
29551;DHT22;16488;52.396;10.696;2023-12-20T00:21:15;6.60;99.90
29551;DHT22;16488;52.396;10.696;2023-12-20T00:23:41;6.60;99.90
29551;DHT22;16488;52.396;10.696;2023-12-20T00:26:06;6.50;99.90
29551;DHT22;16488;52.396;10.696;2023-12-20T00:28:32;6.60;99.90
29551;DHT22;16488;52.396;10.696;2023-12-20T00:30:58;6.70;99.90
29551;DHT22;16488;52.396;10.696;2023-12-20T00:33:23;6.70;99.90
29551;DHT22;16488;52.396;10.696;2023-12-20T00:35:49;6.70;99.90
29551;DHT22;16488;52.396;10.696;2023-12-20T00:38:15;6.80;99.90
29551;DHT22;16488;52.396;10.696;2023-12-20T00:40:40;6.90;99.90
29551;DHT22;16488;52.396;10.696;2023-12-20T00:43:06;6.90;99.90
29551;DHT22;16488;52.396;10.696;2023-12-20T00:45:32;6.90;99.90
29551;DHT22;16488;52.396;10.696;2023-12-20T00:47:57;6.90;99.90
29551;DHT22;16488;52.396;10.696;2023-12-20T00:50:24;6.90;99.90
29551;DHT22;16488;52.396;10.696;2023-12-20T00:52:50;6.80;99.90
29551;DHT22;16488;52.396;10.696;2023-12-20T00:55:16;6.80;99.90
29551;DHT22;16488;52.396;10.696;2023-12-20T00:57:41;6.80;99.90
29551;DHT22;16488;52.396;10.696;2023-12-20T01:00:07;6.80;99.90
29551;DHT22;16488;52.396;10.696;2023-12-20T01:02:35;6.80;99.90
29551;DHT22;16488;52.396;10.696;2023-12-20T01:05:01;6.70;99.90
29551;DHT22;16488;52.396;10.696;2023-12-20T01:07:26;6.70;99.90
29551;DHT22;16488;52.396;10.696;2023-12-20T01:09:52;6.60;99.90
29551;DHT22;16488;52.396;10.696;2023-12-20T01:12:18;6.60;99.90
29551;DHT22;16488;52.396;10.696;2023-12-20T01:14:45;6.60;99.90
29551;DHT22;16488;52.396;10.696;2023-12-20T01:17:11;6.50;99.90
29551;DHT22;16488;52.396;10.696;2023-12-20T01:19:37;6.60;99.90
29551;DHT22;16488;52.396;10.696;2023-12-20T01:22:03;6.50;99.90
29551;DHT22;16488;52.396;10.696;2023-12-20T01:24:28;6.50;99.90
29551;DHT22;16488;52.396;10.696;2023-12-20T01:26:54;6.40;99.90
29551;DHT22;16488;52.396;10.696;2023-12-20T01:29:20;6.40;99.90
29551;DHT22;16488;52.396;10.696;2023-12-20T01:31:45;6.40;99.90
29551;DHT22;16488;52.396;10.696;2023-12-20T01:34:12;6.30;99.90
29551;DHT22;16488;52.396;10.696;2023-12-20T01:36:37;6.30;99.90
29551;DHT22;16488;52.396;10.696;2023-12-20T01:39:03;6.30;99.90
29551;DHT22;16488;52.396;10.696;2023-12-20T01:41:29;6.30;99.90
29551;DHT22;16488;52.396;10.696;2023-12-20T01:43:55;6.30;99.90
29551;DHT22;16488;52.396;10.696;2023-12-20T01:46:21;6.20;99.90
29551;DHT22;16488;52.396;10.696;2023-12-20T01:48:48;6.30;99.90
29551;DHT22;16488;52.396;10.696;2023-12-20T01:51:14;6.30;99.90
29551;DHT22;16488;52.396;10.696;2023-12-20T01:53:40;6.30;99.90
29551;DHT22;16488;52.396;10.696;2023-12-20T01:56:07;6.20;99.90
29551;DHT22;16488;52.396;10.696;2023-12-20T01:58:34;6.20;99.90
29551;DHT22;16488;52.396;10.696;2023-12-20T02:01:00;6.10;99.90
29551;DHT22;16488;52.396;10.696;2023-12-20T02:03:26;6.10;99.90
29551;DHT22;16488;52.396;10.696;2023-12-20T02:05:51;6.10;99.90
29551;DHT22;16488;52.396;10.696;2023-12-20T02:08:18;6.10;99.90
29551;DHT22;16488;52.396;10.696;2023-12-20T02:10:44;6.10;99.90
29551;DHT22;16488;52.396;10.696;2023-12-20T02:13:10;6.00;99.90
29551;DHT22;16488;52.396;10.696;2023-12-20T02:15:35;6.10;99.90
29551;DHT22;16488;52.396;10.696;2023-12-20T02:18:06;6.00;99.90
29551;DHT22;16488;52.396;10.696;2023-12-20T02:20:31;6.00;99.90
29551;DHT22;16488;52.396;10.696;2023-12-20T02:22:57;6.00;99.90
29551;DHT22;16488;52.396;10.696;2023-12-20T02:25:22;6.10;99.90
29551;DHT22;16488;52.396;10.696;2023-12-20T02:27:48;6.10;99.90
29551;DHT22;16488;52.396;10.696;2023-12-20T02:30:15;6.20;99.90
29551;DHT22;16488;52.396;10.696;2023-12-20T02:32:40;6.10;99.90
29551;DHT22;16488;52.396;10.696;2023-12-20T02:35:06;6.20;99.90
29551;DHT22;16488;52.396;10.696;2023-12-20T02:37:33;6.20;99.90
29551;DHT22;16488;52.396;10.696;2023-12-20T02:39:58;6.20;99.90
29551;DHT22;16488;52.396;10.696;2023-12-20T02:42:24;6.10;99.90
29551;DHT22;16488;52.396;10.696;2023-12-20T02:44:49;6.00;99.90
29551;DHT22;16488;52.396;10.696;2023-12-20T02:47:15;6.00;99.90
29551;DHT22;16488;52.396;10.696;2023-12-20T02:49:41;5.90;99.90
29551;DHT22;16488;52.396;10.696;2023-12-20T02:52:06;5.90;99.90
29551;DHT22;16488;52.396;10.696;2023-12-20T02:54:32;5.80;99.90
29551;DHT22;16488;52.396;10.696;2023-12-20T02:56:58;5.80;99.90
29551;DHT22;16488;52.396;10.696;2023-12-20T02:59:23;5.80;99.90
29551;DHT22;16488;52.396;10.696;2023-12-20T03:01:49;5.80;99.90
29551;DHT22;16488;52.396;10.696;2023-12-20T03:04:15;5.70;99.90
29551;DHT22;16488;52.396;10.696;2023-12-20T03:06:40;5.70;99.90
29551;DHT22;16488;52.396;10.696;2023-12-20T03:09:06;5.60;99.90
29551;DHT22;16488;52.396;10.696;2023-12-20T03:11:32;5.50;99.90
29551;DHT22;16488;52.396;10.696;2023-12-20T03:13:58;5.50;99.90
29551;DHT22;16488;52.396;10.696;2023-12-20T03:16:24;5.60;99.90
29551;DHT22;16488;52.396;10.696;2023-12-20T03:18:50;5.60;99.90
29551;DHT22;16488;52.396;10.696;2023-12-20T03:21:15;5.50;99.90
29551;DHT22;16488;52.396;10.696;2023-12-20T03:23:41;5.40;99.90
29551;DHT22;16488;52.396;10.696;2023-12-20T03:26:07;5.40;99.90
29551;DHT22;16488;52.396;10.696;2023-12-20T03:28:33;5.40;99.90
29551;DHT22;16488;52.396;10.696;2023-12-20T03:30:59;5.50;99.90
29551;DHT22;16488;52.396;10.696;2023-12-20T03:33:25;5.50;99.90
29551;DHT22;16488;52.396;10.696;2023-12-20T03:35:51;5.50;99.90
29551;DHT22;16488;52.396;10.696;2023-12-20T03:38:16;5.40;99.90
29551;DHT22;16488;52.396;10.696;2023-12-20T03:40:42;5.40;99.90
29551;DHT22;16488;52.396;10.696;2023-12-20T03:43:08;5.40;99.90
29551;DHT22;16488;52.396;10.696;2023-12-20T03:45:33;5.40;99.90
29551;DHT22;16488;52.396;10.696;2023-12-20T03:47:59;5.40;99.90
29551;DHT22;16488;52.396;10.696;2023-12-20T03:50:26;5.30;99.90
29551;DHT22;16488;52.396;10.696;2023-12-20T03:52:52;5.30;99.90
29551;DHT22;16488;52.396;10.696;2023-12-20T03:55:18;5.20;99.90
29551;DHT22;16488;52.396;10.696;2023-12-20T03:57:43;5.20;99.90
29551;DHT22;16488;52.396;10.696;2023-12-20T04:00:09;5.20;99.90
29551;DHT22;16488;52.396;10.696;2023-12-20T04:02:39;5.20;99.90
29551;DHT22;16488;52.396;10.696;2023-12-20T04:05:06;5.20;99.90
29551;DHT22;16488;52.396;10.696;2023-12-20T04:07:32;5.20;99.90
29551;DHT22;16488;52.396;10.696;2023-12-20T04:09:57;5.20;99.90
29551;DHT22;16488;52.396;10.696;2023-12-20T04:12:23;5.20;99.90
29551;DHT22;16488;52.396;10.696;2023-12-20T04:14:49;5.20;99.90
29551;DHT22;16488;52.396;10.696;2023-12-20T04:17:15;5.20;99.90
29551;DHT22;16488;52.396;10.696;2023-12-20T04:19:42;5.20;99.90
29551;DHT22;16488;52.396;10.696;2023-12-20T04:22:08;5.10;99.90
29551;DHT22;16488;52.396;10.696;2023-12-20T04:24:33;5.20;99.90
29551;DHT22;16488;52.396;10.696;2023-12-20T04:26:59;5.20;99.90
29551;DHT22;16488;52.396;10.696;2023-12-20T04:29:25;5.10;99.90
29551;DHT22;16488;52.396;10.696;2023-12-20T04:31:50;5.20;99.90
29551;DHT22;16488;52.396;10.696;2023-12-20T04:34:19;5.20;99.90
29551;DHT22;16488;52.396;10.696;2023-12-20T04:36:45;5.20;99.90
29551;DHT22;16488;52.396;10.696;2023-12-20T04:39:11;5.20;99.90
29551;DHT22;16488;52.396;10.696;2023-12-20T04:41:37;5.10;99.90
29551;DHT22;16488;52.396;10.696;2023-12-20T04:44:03;5.10;99.90
29551;DHT22;16488;52.396;10.696;2023-12-20T04:46:28;5.10;99.90
29551;DHT22;16488;52.396;10.696;2023-12-20T04:48:54;5.20;99.90
29551;DHT22;16488;52.396;10.696;2023-12-20T04:51:20;5.20;99.90
29551;DHT22;16488;52.396;10.696;2023-12-20T04:53:46;5.20;99.90
29551;DHT22;16488;52.396;10.696;2023-12-20T04:56:11;5.20;99.90
29551;DHT22;16488;52.396;10.696;2023-12-20T04:58:37;5.30;99.90
29551;DHT22;16488;52.396;10.696;2023-12-20T05:01:04;5.30;99.90
29551;DHT22;16488;52.396;10.696;2023-12-20T05:03:30;5.30;99.90
29551;DHT22;16488;52.396;10.696;2023-12-20T05:05:56;5.30;99.90
29551;DHT22;16488;52.396;10.696;2023-12-20T05:08:22;5.30;99.90
29551;DHT22;16488;52.396;10.696;2023-12-20T05:10:48;5.30;99.90
29551;DHT22;16488;52.396;10.696;2023-12-20T05:13:13;5.40;99.90
29551;DHT22;16488;52.396;10.696;2023-12-20T05:15:39;5.40;99.90
29551;DHT22;16488;52.396;10.696;2023-12-20T05:18:05;5.40;99.90
29551;DHT22;16488;52.396;10.696;2023-12-20T05:20:30;5.40;99.90
29551;DHT22;16488;52.396;10.696;2023-12-20T05:22:56;5.40;99.90
29551;DHT22;16488;52.396;10.696;2023-12-20T05:25:22;5.40;99.90
29551;DHT22;16488;52.396;10.696;2023-12-20T05:27:48;5.50;99.90
29551;DHT22;16488;52.396;10.696;2023-12-20T05:30:13;5.50;99.90
29551;DHT22;16488;52.396;10.696;2023-12-20T05:32:39;5.50;99.90
29551;DHT22;16488;52.396;10.696;2023-12-20T05:35:05;5.50;99.90
29551;DHT22;16488;52.396;10.696;2023-12-20T05:37:31;5.60;99.90
29551;DHT22;16488;52.396;10.696;2023-12-20T05:39:57;5.60;99.90
29551;DHT22;16488;52.396;10.696;2023-12-20T05:42:22;5.60;99.90
29551;DHT22;16488;52.396;10.696;2023-12-20T05:44:48;5.60;99.90
29551;DHT22;16488;52.396;10.696;2023-12-20T05:47:14;5.70;99.90
29551;DHT22;16488;52.396;10.696;2023-12-20T05:49:39;5.70;99.90
29551;DHT22;16488;52.396;10.696;2023-12-20T05:52:05;5.80;99.90
29551;DHT22;16488;52.396;10.696;2023-12-20T05:54:31;5.80;99.90
29551;DHT22;16488;52.396;10.696;2023-12-20T05:56:57;5.80;99.90
29551;DHT22;16488;52.396;10.696;2023-12-20T05:59:22;5.80;99.90
29551;DHT22;16488;52.396;10.696;2023-12-20T06:01:48;5.90;99.90
29551;DHT22;16488;52.396;10.696;2023-12-20T06:04:17;5.90;99.90
29551;DHT22;16488;52.396;10.696;2023-12-20T06:06:43;5.90;99.90
29551;DHT22;16488;52.396;10.696;2023-12-20T06:09:09;5.90;99.90
29551;DHT22;16488;52.396;10.696;2023-12-20T06:11:34;5.90;99.90
29551;DHT22;16488;52.396;10.696;2023-12-20T06:14:00;6.00;99.90
29551;DHT22;16488;52.396;10.696;2023-12-20T06:16:26;6.00;99.90
29551;DHT22;16488;52.396;10.696;2023-12-20T06:18:51;6.00;99.90
29551;DHT22;16488;52.396;10.696;2023-12-20T06:21:17;6.00;99.90
29551;DHT22;16488;52.396;10.696;2023-12-20T06:23:43;6.00;99.90
29551;DHT22;16488;52.396;10.696;2023-12-20T06:26:08;6.00;99.90
29551;DHT22;16488;52.396;10.696;2023-12-20T06:28:34;6.00;99.90
29551;DHT22;16488;52.396;10.696;2023-12-20T06:31:00;6.00;99.90
29551;DHT22;16488;52.396;10.696;2023-12-20T06:33:26;6.10;99.90
29551;DHT22;16488;52.396;10.696;2023-12-20T06:35:52;6.10;99.90
29551;DHT22;16488;52.396;10.696;2023-12-20T06:38:18;6.10;99.90
29551;DHT22;16488;52.396;10.696;2023-12-20T06:40:44;6.20;99.90
29551;DHT22;16488;52.396;10.696;2023-12-20T06:43:10;6.10;99.90
29551;DHT22;16488;52.396;10.696;2023-12-20T06:45:35;6.10;99.90
29551;DHT22;16488;52.396;10.696;2023-12-20T06:48:01;6.10;99.90
29551;DHT22;16488;52.396;10.696;2023-12-20T06:50:27;6.10;99.90
29551;DHT22;16488;52.396;10.696;2023-12-20T06:52:53;6.10;99.90
29551;DHT22;16488;52.396;10.696;2023-12-20T06:55:19;6.10;99.90
29551;DHT22;16488;52.396;10.696;2023-12-20T06:57:44;6.10;99.90
29551;DHT22;16488;52.396;10.696;2023-12-20T07:00:11;6.10;99.90
29551;DHT22;16488;52.396;10.696;2023-12-20T07:02:37;6.20;99.90
29551;DHT22;16488;52.396;10.696;2023-12-20T07:05:03;6.20;99.90
29551;DHT22;16488;52.396;10.696;2023-12-20T07:07:29;6.20;99.90
29551;DHT22;16488;52.396;10.696;2023-12-20T07:09:55;6.20;99.90
29551;DHT22;16488;52.396;10.696;2023-12-20T07:12:21;6.20;99.90
29551;DHT22;16488;52.396;10.696;2023-12-20T07:14:47;6.20;99.90
29551;DHT22;16488;52.396;10.696;2023-12-20T07:17:13;6.20;99.90
29551;DHT22;16488;52.396;10.696;2023-12-20T07:19:40;6.20;99.90
29551;DHT22;16488;52.396;10.696;2023-12-20T07:22:06;6.30;99.90
29551;DHT22;16488;52.396;10.696;2023-12-20T07:24:32;6.20;99.90
29551;DHT22;16488;52.396;10.696;2023-12-20T07:27:00;6.30;99.90
29551;DHT22;16488;52.396;10.696;2023-12-20T07:29:26;6.30;99.90
29551;DHT22;16488;52.396;10.696;2023-12-20T07:31:52;6.30;99.90
29551;DHT22;16488;52.396;10.696;2023-12-20T07:34:20;6.30;99.90
29551;DHT22;16488;52.396;10.696;2023-12-20T07:36:45;6.30;99.90
29551;DHT22;16488;52.396;10.696;2023-12-20T07:39:11;6.40;99.90
29551;DHT22;16488;52.396;10.696;2023-12-20T07:41:37;6.40;99.90
29551;DHT22;16488;52.396;10.696;2023-12-20T07:44:04;6.40;99.90
29551;DHT22;16488;52.396;10.696;2023-12-20T07:46:29;6.30;99.90
29551;DHT22;16488;52.396;10.696;2023-12-20T07:48:55;6.40;99.90
29551;DHT22;16488;52.396;10.696;2023-12-20T07:51:21;6.40;99.90
29551;DHT22;16488;52.396;10.696;2023-12-20T07:53:46;6.30;99.90
29551;DHT22;16488;52.396;10.696;2023-12-20T07:56:15;6.40;99.90
29551;DHT22;16488;52.396;10.696;2023-12-20T07:58:42;6.40;99.90
29551;DHT22;16488;52.396;10.696;2023-12-20T08:01:08;6.30;99.90
29551;DHT22;16488;52.396;10.696;2023-12-20T08:03:34;6.30;99.90
29551;DHT22;16488;52.396;10.696;2023-12-20T08:05:59;6.30;99.90
29551;DHT22;16488;52.396;10.696;2023-12-20T08:08:26;6.30;99.90
29551;DHT22;16488;52.396;10.696;2023-12-20T08:10:51;6.30;99.90
29551;DHT22;16488;52.396;10.696;2023-12-20T08:13:17;6.20;99.90
29551;DHT22;16488;52.396;10.696;2023-12-20T08:15:43;6.20;99.90
29551;DHT22;16488;52.396;10.696;2023-12-20T08:18:09;6.20;99.90
29551;DHT22;16488;52.396;10.696;2023-12-20T08:20:34;6.20;99.90
29551;DHT22;16488;52.396;10.696;2023-12-20T08:23:00;6.20;99.90
29551;DHT22;16488;52.396;10.696;2023-12-20T08:25:26;6.20;99.90
29551;DHT22;16488;52.396;10.696;2023-12-20T08:27:52;6.20;99.90
29551;DHT22;16488;52.396;10.696;2023-12-20T08:30:18;6.20;99.90
29551;DHT22;16488;52.396;10.696;2023-12-20T08:32:48;6.30;99.90
29551;DHT22;16488;52.396;10.696;2023-12-20T08:35:13;6.30;99.90
29551;DHT22;16488;52.396;10.696;2023-12-20T08:37:39;6.30;99.90
29551;DHT22;16488;52.396;10.696;2023-12-20T08:40:05;6.30;99.90
29551;DHT22;16488;52.396;10.696;2023-12-20T08:42:31;6.30;99.90
29551;DHT22;16488;52.396;10.696;2023-12-20T08:45:00;6.40;99.90
29551;DHT22;16488;52.396;10.696;2023-12-20T08:47:25;6.40;99.90
29551;DHT22;16488;52.396;10.696;2023-12-20T08:49:52;6.40;99.90
29551;DHT22;16488;52.396;10.696;2023-12-20T08:52:24;6.40;99.90
29551;DHT22;16488;52.396;10.696;2023-12-20T08:54:50;6.40;99.90
29551;DHT22;16488;52.396;10.696;2023-12-20T08:57:20;6.40;99.90
29551;DHT22;16488;52.396;10.696;2023-12-20T08:59:50;6.50;99.90
29551;DHT22;16488;52.396;10.696;2023-12-20T09:02:17;6.40;99.90
29551;DHT22;16488;52.396;10.696;2023-12-20T09:04:43;6.50;99.90
29551;DHT22;16488;52.396;10.696;2023-12-20T09:07:25;6.40;99.90
29551;DHT22;16488;52.396;10.696;2023-12-20T09:09:52;6.50;99.90
29551;DHT22;16488;52.396;10.696;2023-12-20T09:12:19;6.50;99.90
29551;DHT22;16488;52.396;10.696;2023-12-20T09:14:45;6.40;99.90
29551;DHT22;16488;52.396;10.696;2023-12-20T09:17:11;6.50;99.90
29551;DHT22;16488;52.396;10.696;2023-12-20T09:19:38;6.50;99.90
29551;DHT22;16488;52.396;10.696;2023-12-20T09:22:04;6.50;99.90
29551;DHT22;16488;52.396;10.696;2023-12-20T09:24:30;6.50;99.90
29551;DHT22;16488;52.396;10.696;2023-12-20T09:26:56;6.50;99.90
29551;DHT22;16488;52.396;10.696;2023-12-20T09:29:22;6.60;99.90
29551;DHT22;16488;52.396;10.696;2023-12-20T09:31:48;6.60;99.90
29551;DHT22;16488;52.396;10.696;2023-12-20T09:34:15;6.60;99.90
29551;DHT22;16488;52.396;10.696;2023-12-20T09:36:41;6.60;99.90
29551;DHT22;16488;52.396;10.696;2023-12-20T09:39:15;6.60;99.90
29551;DHT22;16488;52.396;10.696;2023-12-20T09:41:45;6.70;99.90
29551;DHT22;16488;52.396;10.696;2023-12-20T09:44:16;6.70;99.90
29551;DHT22;16488;52.396;10.696;2023-12-20T09:46:45;6.70;99.90
29551;DHT22;16488;52.396;10.696;2023-12-20T09:49:11;6.80;99.90
29551;DHT22;16488;52.396;10.696;2023-12-20T09:51:38;6.80;99.90
29551;DHT22;16488;52.396;10.696;2023-12-20T09:54:05;6.80;99.90
29551;DHT22;16488;52.396;10.696;2023-12-20T09:56:31;6.80;99.90
29551;DHT22;16488;52.396;10.696;2023-12-20T09:58:57;6.80;99.90
29551;DHT22;16488;52.396;10.696;2023-12-20T10:01:23;6.80;99.90
29551;DHT22;16488;52.396;10.696;2023-12-20T10:03:51;6.80;99.90
29551;DHT22;16488;52.396;10.696;2023-12-20T10:06:18;6.80;99.90
29551;DHT22;16488;52.396;10.696;2023-12-20T10:08:43;6.80;99.90
29551;DHT22;16488;52.396;10.696;2023-12-20T10:11:09;6.70;99.90
29551;DHT22;16488;52.396;10.696;2023-12-20T10:13:39;6.80;99.90
29551;DHT22;16488;52.396;10.696;2023-12-20T10:16:06;6.80;99.90
29551;DHT22;16488;52.396;10.696;2023-12-20T10:18:35;6.80;99.90
29551;DHT22;16488;52.396;10.696;2023-12-20T10:21:01;6.80;99.90
29551;DHT22;16488;52.396;10.696;2023-12-20T10:23:26;6.80;99.90
29551;DHT22;16488;52.396;10.696;2023-12-20T10:25:59;6.90;99.90
29551;DHT22;16488;52.396;10.696;2023-12-20T10:28:25;6.80;99.90
29551;DHT22;16488;52.396;10.696;2023-12-20T10:30:54;6.90;99.90
29551;DHT22;16488;52.396;10.696;2023-12-20T10:33:26;6.90;99.90
29551;DHT22;16488;52.396;10.696;2023-12-20T10:35:52;7.00;99.90
29551;DHT22;16488;52.396;10.696;2023-12-20T10:38:18;7.00;99.90
29551;DHT22;16488;52.396;10.696;2023-12-20T10:40:45;7.10;99.90
29551;DHT22;16488;52.396;10.696;2023-12-20T10:43:12;7.10;99.90
29551;DHT22;16488;52.396;10.696;2023-12-20T10:45:38;7.20;99.90
29551;DHT22;16488;52.396;10.696;2023-12-20T10:48:05;7.10;99.90
29551;DHT22;16488;52.396;10.696;2023-12-20T10:50:31;7.00;99.90
29551;DHT22;16488;52.396;10.696;2023-12-20T10:52:57;7.00;99.90
29551;DHT22;16488;52.396;10.696;2023-12-20T10:55:24;6.90;99.90
29551;DHT22;16488;52.396;10.696;2023-12-20T10:58:01;6.90;99.90
29551;DHT22;16488;52.396;10.696;2023-12-20T11:00:28;6.90;99.90
29551;DHT22;16488;52.396;10.696;2023-12-20T11:02:56;7.00;99.90
29551;DHT22;16488;52.396;10.696;2023-12-20T11:05:51;7.10;99.90
29551;DHT22;16488;52.396;10.696;2023-12-20T11:08:44;7.10;99.90
29551;DHT22;16488;52.396;10.696;2023-12-20T11:11:21;7.20;99.90
29551;DHT22;16488;52.396;10.696;2023-12-20T11:13:59;7.30;99.90
29551;DHT22;16488;52.396;10.696;2023-12-20T11:16:25;7.40;99.90
29551;DHT22;16488;52.396;10.696;2023-12-20T11:18:51;7.40;99.90
29551;DHT22;16488;52.396;10.696;2023-12-20T11:21:17;7.50;99.90
29551;DHT22;16488;52.396;10.696;2023-12-20T11:23:42;7.40;99.90
29551;DHT22;16488;52.396;10.696;2023-12-20T11:26:08;7.40;99.90
29551;DHT22;16488;52.396;10.696;2023-12-20T11:28:34;7.30;99.90
29551;DHT22;16488;52.396;10.696;2023-12-20T11:31:01;7.30;99.90
29551;DHT22;16488;52.396;10.696;2023-12-20T11:33:35;7.20;99.90
29551;DHT22;16488;52.396;10.696;2023-12-20T11:36:01;7.20;99.90
29551;DHT22;16488;52.396;10.696;2023-12-20T11:38:36;7.20;99.90
29551;DHT22;16488;52.396;10.696;2023-12-20T11:41:06;7.10;99.90
29551;DHT22;16488;52.396;10.696;2023-12-20T11:43:38;7.10;99.90
29551;DHT22;16488;52.396;10.696;2023-12-20T11:49:27;7.20;99.90
29551;DHT22;16488;52.396;10.696;2023-12-20T11:51:55;7.20;99.90
29551;DHT22;16488;52.396;10.696;2023-12-20T11:54:21;7.20;99.90
29551;DHT22;16488;52.396;10.696;2023-12-20T11:56:47;7.20;99.90
29551;DHT22;16488;52.396;10.696;2023-12-20T11:59:13;7.20;99.90
29551;DHT22;16488;52.396;10.696;2023-12-20T12:01:39;7.20;99.90
29551;DHT22;16488;52.396;10.696;2023-12-20T12:04:06;7.20;99.90
29551;DHT22;16488;52.396;10.696;2023-12-20T12:06:32;7.10;99.90
29551;DHT22;16488;52.396;10.696;2023-12-20T12:08:58;7.10;99.90
29551;DHT22;16488;52.396;10.696;2023-12-20T12:11:24;7.10;99.90
29551;DHT22;16488;52.396;10.696;2023-12-20T12:13:50;7.00;99.90
29551;DHT22;16488;52.396;10.696;2023-12-20T12:16:22;7.00;99.90
29551;DHT22;16488;52.396;10.696;2023-12-20T12:18:58;6.90;99.90
29551;DHT22;16488;52.396;10.696;2023-12-20T12:21:24;6.90;99.90
29551;DHT22;16488;52.396;10.696;2023-12-20T12:23:50;6.90;99.90
29551;DHT22;16488;52.396;10.696;2023-12-20T12:26:15;6.70;99.90
29551;DHT22;16488;52.396;10.696;2023-12-20T12:28:41;6.50;99.90
29551;DHT22;16488;52.396;10.696;2023-12-20T12:31:08;6.30;99.90
29551;DHT22;16488;52.396;10.696;2023-12-20T12:33:34;6.20;99.90
29551;DHT22;16488;52.396;10.696;2023-12-20T12:36:03;6.10;99.90
29551;DHT22;16488;52.396;10.696;2023-12-20T12:38:30;6.00;99.90
29551;DHT22;16488;52.396;10.696;2023-12-20T12:40:56;6.00;99.90
29551;DHT22;16488;52.396;10.696;2023-12-20T12:43:22;6.00;99.90
29551;DHT22;16488;52.396;10.696;2023-12-20T12:45:48;6.00;99.90
29551;DHT22;16488;52.396;10.696;2023-12-20T12:48:14;6.00;99.90
29551;DHT22;16488;52.396;10.696;2023-12-20T12:50:40;6.10;99.90
29551;DHT22;16488;52.396;10.696;2023-12-20T12:53:06;6.20;99.90
29551;DHT22;16488;52.396;10.696;2023-12-20T12:55:32;6.30;99.90
29551;DHT22;16488;52.396;10.696;2023-12-20T12:57:58;6.40;99.90
29551;DHT22;16488;52.396;10.696;2023-12-20T13:00:23;6.40;99.90
29551;DHT22;16488;52.396;10.696;2023-12-20T13:02:50;6.40;99.90
29551;DHT22;16488;52.396;10.696;2023-12-20T13:05:17;6.30;99.90
29551;DHT22;16488;52.396;10.696;2023-12-20T13:07:43;6.40;99.90
29551;DHT22;16488;52.396;10.696;2023-12-20T13:10:11;6.40;99.90
29551;DHT22;16488;52.396;10.696;2023-12-20T13:12:36;6.40;99.90
29551;DHT22;16488;52.396;10.696;2023-12-20T13:15:02;6.40;99.90
29551;DHT22;16488;52.396;10.696;2023-12-20T13:17:29;6.40;99.90
29551;DHT22;16488;52.396;10.696;2023-12-20T13:19:55;6.50;99.90
29551;DHT22;16488;52.396;10.696;2023-12-20T13:22:21;6.80;99.90
29551;DHT22;16488;52.396;10.696;2023-12-20T13:24:46;7.50;99.90
29551;DHT22;16488;52.396;10.696;2023-12-20T13:27:12;8.10;99.90
29551;DHT22;16488;52.396;10.696;2023-12-20T13:29:38;8.10;99.90
29551;DHT22;16488;52.396;10.696;2023-12-20T13:32:04;7.80;99.90
29551;DHT22;16488;52.396;10.696;2023-12-20T13:34:30;7.50;99.90
29551;DHT22;16488;52.396;10.696;2023-12-20T13:36:55;7.20;99.90
29551;DHT22;16488;52.396;10.696;2023-12-20T13:39:22;7.00;99.90
29551;DHT22;16488;52.396;10.696;2023-12-20T13:41:48;6.90;99.90
29551;DHT22;16488;52.396;10.696;2023-12-20T13:44:13;7.00;99.90
29551;DHT22;16488;52.396;10.696;2023-12-20T13:46:41;7.30;99.90
29551;DHT22;16488;52.396;10.696;2023-12-20T13:49:06;7.30;99.90
29551;DHT22;16488;52.396;10.696;2023-12-20T13:51:32;7.10;99.90
29551;DHT22;16488;52.396;10.696;2023-12-20T13:53:58;6.80;99.90
29551;DHT22;16488;52.396;10.696;2023-12-20T13:56:24;6.70;99.90
29551;DHT22;16488;52.396;10.696;2023-12-20T13:58:50;6.40;99.90
29551;DHT22;16488;52.396;10.696;2023-12-20T14:01:17;6.30;99.90
29551;DHT22;16488;52.396;10.696;2023-12-20T14:03:42;6.20;99.90
29551;DHT22;16488;52.396;10.696;2023-12-20T14:06:08;6.20;99.90
29551;DHT22;16488;52.396;10.696;2023-12-20T14:08:34;6.20;99.90
29551;DHT22;16488;52.396;10.696;2023-12-20T14:11:01;6.10;99.90
29551;DHT22;16488;52.396;10.696;2023-12-20T14:13:27;6.10;99.90
29551;DHT22;16488;52.396;10.696;2023-12-20T14:15:53;6.10;99.90
29551;DHT22;16488;52.396;10.696;2023-12-20T14:18:20;6.00;99.90
29551;DHT22;16488;52.396;10.696;2023-12-20T14:20:45;6.00;99.90
29551;DHT22;16488;52.396;10.696;2023-12-20T14:23:12;5.90;99.90
29551;DHT22;16488;52.396;10.696;2023-12-20T14:25:41;5.90;99.90
29551;DHT22;16488;52.396;10.696;2023-12-20T14:28:08;5.90;99.90
29551;DHT22;16488;52.396;10.696;2023-12-20T14:33:57;5.80;99.90
29551;DHT22;16488;52.396;10.696;2023-12-20T14:36:23;5.70;99.90
29551;DHT22;16488;52.396;10.696;2023-12-20T14:38:49;5.70;99.90
29551;DHT22;16488;52.396;10.696;2023-12-20T14:41:18;5.70;99.90
29551;DHT22;16488;52.396;10.696;2023-12-20T14:43:44;5.70;99.90
29551;DHT22;16488;52.396;10.696;2023-12-20T14:46:10;5.70;99.90
29551;DHT22;16488;52.396;10.696;2023-12-20T14:48:36;5.70;99.90
29551;DHT22;16488;52.396;10.696;2023-12-20T14:51:02;5.70;99.90
29551;DHT22;16488;52.396;10.696;2023-12-20T14:53:27;5.80;99.90
29551;DHT22;16488;52.396;10.696;2023-12-20T14:55:53;5.80;99.90
29551;DHT22;16488;52.396;10.696;2023-12-20T14:58:19;5.70;99.90
29551;DHT22;16488;52.396;10.696;2023-12-20T15:00:44;5.70;99.90
29551;DHT22;16488;52.396;10.696;2023-12-20T15:03:10;5.70;99.90
29551;DHT22;16488;52.396;10.696;2023-12-20T15:05:36;5.60;99.90
29551;DHT22;16488;52.396;10.696;2023-12-20T15:08:02;5.60;99.90
29551;DHT22;16488;52.396;10.696;2023-12-20T15:10:28;5.70;99.90
29551;DHT22;16488;52.396;10.696;2023-12-20T15:12:54;5.70;99.90
29551;DHT22;16488;52.396;10.696;2023-12-20T15:15:21;5.70;99.90
29551;DHT22;16488;52.396;10.696;2023-12-20T15:17:47;5.80;99.90
29551;DHT22;16488;52.396;10.696;2023-12-20T15:20:12;5.80;99.90
29551;DHT22;16488;52.396;10.696;2023-12-20T15:22:39;5.80;99.90
29551;DHT22;16488;52.396;10.696;2023-12-20T15:25:06;5.80;99.90
29551;DHT22;16488;52.396;10.696;2023-12-20T15:27:34;5.80;99.90
29551;DHT22;16488;52.396;10.696;2023-12-20T15:30:03;5.90;99.90
29551;DHT22;16488;52.396;10.696;2023-12-20T15:32:29;5.80;99.90